createdAt,value
2022-12-23T00:01:33.317Z,98417.80
2022-12-23T00:06:41.608Z,98419.88
2022-12-23T00:12:04.881Z,98421.04
2022-12-23T00:17:22.431Z,98422.39
2022-12-23T00:22:50.431Z,98418.30
2022-12-23T00:28:03.332Z,98421.19
2022-12-23T00:33:11.646Z,98423.69
2022-12-23T00:38:42.347Z,98429.61
2022-12-23T00:43:49.763Z,98429.66
2022-12-23T00:49:16.594Z,98432.38
2022-12-23T00:54:25.161Z,98437.04
2022-12-23T00:59:33.237Z,98431.85
2022-12-23T01:04:59.419Z,98434.94
2022-12-23T01:10:08.714Z,98443.81
2022-12-23T01:15:17.129Z,98447.23
2022-12-23T01:20:26.836Z,98447.54
2022-12-23T01:25:36.399Z,98452.04
2022-12-23T01:30:45.298Z,98451.48
2022-12-23T01:35:53.409Z,98454.55
2022-12-23T01:41:01.614Z,98453.86
2022-12-23T01:46:09.890Z,98459.89
2022-12-23T01:51:22.028Z,98465.20
2022-12-23T01:56:36.750Z,98467.73
2022-12-23T02:02:09.786Z,98476.02
2022-12-23T02:07:37.834Z,98483.36
2022-12-23T02:12:54.429Z,98488.30
2022-12-23T02:18:29.166Z,98490.66
2022-12-23T02:24:15.675Z,98497.88
2022-12-23T02:30:04.091Z,98498.91
2022-12-23T02:35:16.685Z,98503.67
2022-12-23T02:40:33.750Z,98505.02
2022-12-23T02:45:48.599Z,98512.82
2022-12-23T02:50:59.348Z,98514.34
2022-12-23T02:56:10.687Z,98516.34
2022-12-23T03:01:20.787Z,98514.70
2022-12-23T03:06:32.050Z,98519.55
2022-12-23T03:11:53.318Z,98526.85
2022-12-23T03:17:11.050Z,98530.44
2022-12-23T03:22:25.872Z,98535.61
2022-12-23T03:27:39.610Z,98540.89
2022-12-23T03:32:55.272Z,98540.63
2022-12-23T03:38:05.302Z,98540.57
2022-12-23T03:43:17.951Z,98537.13
2022-12-23T03:48:32.423Z,98538.21
2022-12-23T03:53:45.396Z,98543.88
2022-12-23T03:59:00.423Z,98542.02
2022-12-23T04:04:13.431Z,98539.83
2022-12-23T04:09:23.335Z,98539.92
2022-12-23T04:14:30.977Z,98543.50
2022-12-23T04:19:39.515Z,98546.73
2022-12-23T04:24:47.571Z,98546.69
2022-12-23T04:29:55.290Z,98544.63
2022-12-23T04:35:03.764Z,98539.44
2022-12-23T04:40:13.535Z,98543.54
2022-12-23T04:45:21.895Z,98549.80
2022-12-23T04:50:30.328Z,98558.33
2022-12-23T04:55:38.909Z,98553.41
2022-12-23T05:00:47.720Z,98547.52
2022-12-23T05:05:56.307Z,98545.58
2022-12-23T05:11:04.615Z,98542.95
2022-12-23T05:16:13.741Z,98549.04
2022-12-23T05:21:22.523Z,98549.70
2022-12-23T05:26:30.915Z,98560.56
2022-12-23T05:31:39.491Z,98565.13
2022-12-23T05:36:47.777Z,98572.30
2022-12-23T05:41:55.836Z,98564.35
2022-12-23T05:47:04.340Z,98584.81
2022-12-23T05:52:12.850Z,98591.12
2022-12-23T05:57:21.173Z,98597.10
2022-12-23T06:02:29.837Z,98605.51
2022-12-23T06:07:38.514Z,98608.02
2022-12-23T06:12:47.221Z,98608.73
2022-12-23T06:17:57.243Z,98610.81
2022-12-23T06:23:05.348Z,98612.38
2022-12-23T06:28:13.781Z,98607.67
2022-12-23T06:33:22.151Z,98606.45
2022-12-23T06:38:30.457Z,98605.01
2022-12-23T06:43:38.622Z,98608.15
2022-12-23T06:48:47.347Z,98618.23
2022-12-23T06:53:55.656Z,98617.27
2022-12-23T06:59:04.169Z,98627.14
2022-12-23T07:04:12.245Z,98638.82
2022-12-23T07:09:20.983Z,98647.88
2022-12-23T07:14:29.298Z,98650.09
2022-12-23T07:19:37.883Z,98645.88
2022-12-23T07:24:46.578Z,98643.41
2022-12-23T07:29:55.009Z,98640.80
2022-12-23T07:35:04.252Z,98641.53
2022-12-23T07:40:16.434Z,98640.77
2022-12-23T07:45:25.359Z,98638.47
2022-12-23T07:50:33.687Z,98644.55
2022-12-23T07:55:41.663Z,98646.93
2022-12-23T08:00:50.657Z,98650.23
2022-12-23T08:06:06.306Z,98653.66
2022-12-23T08:11:16.407Z,98653.20
2022-12-23T08:16:24.718Z,98650.30
2022-12-23T08:21:34.001Z,98658.45
2022-12-23T08:26:42.918Z,98657.15
2022-12-23T08:31:52.326Z,98661.78
2022-12-23T08:37:01.898Z,98659.21
2022-12-23T08:42:11.017Z,98654.96
2022-12-23T08:47:20.106Z,98657.45
2022-12-23T08:52:30.004Z,98656.45
2022-12-23T08:57:39.554Z,98656.92
2022-12-23T09:02:49.420Z,98654.02
2022-12-23T09:07:58.869Z,98646.92
2022-12-23T09:13:08.252Z,98638.60
2022-12-23T09:18:16.490Z,98642.80
2022-12-23T09:23:25.038Z,98635.69
2022-12-23T09:28:33.693Z,98638.48
2022-12-23T09:33:42.122Z,98648.70
2022-12-23T09:38:55.824Z,98647.14
2022-12-23T09:44:21.223Z,98642.05
2022-12-23T09:49:30.068Z,98643.77
2022-12-23T09:54:47.679Z,98647.90
2022-12-23T10:00:09.133Z,98647.67
2022-12-23T10:05:28.527Z,98650.77
2022-12-23T10:10:41.750Z,98644.11
2022-12-23T10:15:53.366Z,98634.68
2022-12-23T10:21:06.520Z,98628.73
2022-12-23T10:26:22.846Z,98624.48
2022-12-23T10:31:44.511Z,98612.92
2022-12-23T10:37:00.865Z,98617.56
2022-12-23T10:42:21.946Z,98616.27
2022-12-23T10:47:45.825Z,98622.13
2022-12-23T10:53:00.046Z,98612.45
2022-12-23T10:58:16.729Z,98607.29
2022-12-23T11:03:29.918Z,98597.91
2022-12-23T11:08:40.713Z,98594.69
2022-12-23T11:13:51.596Z,98591.63
2022-12-23T11:19:03.515Z,98587.88
2022-12-23T11:24:18.831Z,98586.06
2022-12-23T11:29:30.376Z,98582.69
2022-12-23T11:34:40.262Z,98582.14
2022-12-23T11:39:50.480Z,98575.80
2022-12-23T11:45:01.827Z,98575.20
2022-12-23T11:50:30.819Z,98571.11
2022-12-23T11:55:44.046Z,98575.06
2022-12-23T12:00:58.392Z,98577.10
2022-12-23T12:06:08.320Z,98574.89
2022-12-23T12:11:23.795Z,98574.45
2022-12-23T12:16:53.697Z,98570.04
2022-12-23T12:22:08.367Z,98567.29
2022-12-23T12:27:17.229Z,98563.20
2022-12-23T12:32:32.135Z,98555.25
2022-12-23T12:37:48.476Z,98561.83
2022-12-23T12:43:04.213Z,98557.41
2022-12-23T12:48:33.565Z,98563.51
2022-12-23T12:53:53.038Z,98566.15
2022-12-23T12:59:02.011Z,98566.88
2022-12-23T13:04:39.579Z,98578.08
2022-12-23T13:09:59.521Z,98576.95
2022-12-23T13:15:21.590Z,98578.08
2022-12-23T13:20:37.099Z,98585.80
2022-12-23T13:25:52.684Z,98592.04
2022-12-23T13:31:10.374Z,98583.77
2022-12-23T13:36:36.493Z,98585.62
2022-12-23T13:41:47.525Z,98579.78
2022-12-23T13:47:07.695Z,98570.98
2022-12-23T13:52:23.756Z,98570.45
2022-12-23T13:57:50.900Z,98566.40
2022-12-23T14:03:23.439Z,98570.98
2022-12-23T14:08:43.485Z,98572.16
2022-12-23T14:14:00.483Z,98567.73
2022-12-23T14:19:41.178Z,98568.36
2022-12-23T14:25:33.627Z,98571.83
2022-12-23T14:30:51.135Z,98570.17
2022-12-23T14:36:30.131Z,98573.92
2022-12-23T14:42:05.445Z,98576.27
2022-12-23T14:47:35.236Z,98581.11
2022-12-23T14:53:09.132Z,98581.77
2022-12-23T14:59:05.385Z,98586.80
2022-12-23T15:04:24.014Z,98586.21
2022-12-23T15:09:48.147Z,98581.58
2022-12-23T15:15:06.909Z,98572.67
2022-12-23T15:20:24.194Z,98572.55
2022-12-23T15:25:34.834Z,98570.80
2022-12-23T15:30:54.397Z,98577.80
2022-12-23T15:36:06.488Z,98574.45
2022-12-23T15:41:22.745Z,98582.02
2022-12-23T15:46:33.747Z,98583.31
2022-12-23T15:52:07.136Z,98589.65
2022-12-23T15:57:22.365Z,98593.70
2022-12-23T16:08:30.326Z,98600.02
2022-12-23T16:13:44.913Z,98595.63
2022-12-23T16:18:57.659Z,98598.55
2022-12-23T16:24:09.280Z,98601.56
2022-12-23T16:29:19.511Z,98602.30
2022-12-23T16:34:33.119Z,98599.20
2022-12-23T16:39:43.146Z,98598.55
2022-12-23T16:44:51.765Z,98597.58
2022-12-23T16:50:00.565Z,98604.58
2022-12-23T16:55:16.218Z,98607.95
2022-12-23T17:00:25.044Z,98604.69
2022-12-23T17:05:33.386Z,98606.67
2022-12-23T17:10:45.098Z,98614.21
2022-12-23T17:15:54.651Z,98608.70
2022-12-23T17:21:03.474Z,98611.16
2022-12-23T17:26:12.499Z,98615.08
2022-12-23T17:31:27.041Z,98619.80
2022-12-23T17:36:36.275Z,98617.69
2022-12-23T17:41:46.150Z,98624.00
2022-12-23T17:46:54.692Z,98629.27
2022-12-23T17:52:03.978Z,98634.49
2022-12-23T17:57:21.232Z,98637.98
2022-12-23T18:02:33.294Z,98632.75
2022-12-23T18:07:42.250Z,98633.27
2022-12-23T18:12:54.540Z,98630.73
2022-12-23T18:18:03.384Z,98633.99
2022-12-23T18:23:15.359Z,98632.25
2022-12-23T18:28:24.754Z,98623.86
2022-12-23T18:33:33.931Z,98625.08
2022-12-23T18:38:42.352Z,98624.95
2022-12-23T18:43:50.864Z,98630.17
2022-12-23T18:48:59.120Z,98634.36
2022-12-23T18:54:08.066Z,98633.63
2022-12-23T18:59:27.490Z,98624.07
2022-12-23T19:04:39.943Z,98635.53
2022-12-23T19:09:48.447Z,98630.65
2022-12-23T19:14:57.265Z,98646.04
2022-12-23T19:20:06.587Z,98651.48
2022-12-23T19:25:21.754Z,98658.48
2022-12-23T19:30:30.059Z,98657.68
2022-12-23T19:35:39.007Z,98661.02
2022-12-23T19:40:47.227Z,98666.64
2022-12-23T19:46:03.281Z,98669.12
2022-12-23T19:51:13.345Z,98678.56
2022-12-23T19:56:23.166Z,98678.58
2022-12-23T20:01:32.032Z,98679.30
2022-12-23T20:06:42.132Z,98682.08
2022-12-23T20:11:51.346Z,98688.52
2022-12-23T20:16:59.770Z,98694.25
2022-12-23T20:22:08.601Z,98698.96
2022-12-23T20:27:32.708Z,98703.84
2022-12-23T20:32:41.160Z,98705.21
2022-12-23T20:37:49.642Z,98708.63
2022-12-23T20:42:58.687Z,98696.90
2022-12-23T20:48:07.836Z,98700.88
2022-12-23T20:55:33.399Z,98703.66
2022-12-23T21:01:14.804Z,98712.34
2022-12-23T21:06:24.241Z,98719.50
2022-12-23T21:11:34.456Z,98716.95
2022-12-23T21:16:43.667Z,98715.02
2022-12-23T21:21:52.945Z,98718.69
2022-12-23T21:27:01.405Z,98723.45
2022-12-23T21:32:10.707Z,98719.98
2022-12-23T21:37:19.036Z,98723.71
2022-12-23T21:42:27.427Z,98724.14
2022-12-23T21:47:35.845Z,98720.90
2022-12-23T21:52:44.161Z,98723.02
2022-12-23T21:57:53.237Z,98733.20
2022-12-23T22:03:02.045Z,98736.38
2022-12-23T22:08:10.490Z,98739.18
2022-12-23T22:13:18.685Z,98735.39
2022-12-23T22:18:27.030Z,98738.88
2022-12-23T22:23:35.718Z,98739.60
2022-12-23T22:28:44.491Z,98742.40
2022-12-23T22:33:53.247Z,98749.73
2022-12-23T22:39:02.804Z,98759.70
2022-12-23T22:44:11.893Z,98768.61
2022-12-23T22:49:20.809Z,98777.00
2022-12-23T22:54:29.437Z,98782.31
2022-12-23T22:59:38.198Z,98787.45
2022-12-23T23:04:47.670Z,98793.05
2022-12-23T23:09:56.240Z,98790.84
2022-12-23T23:15:04.483Z,98796.02
2022-12-23T23:20:14.456Z,98800.86
2022-12-23T23:25:23.982Z,98800.10
2022-12-23T23:30:32.284Z,98805.52
2022-12-23T23:35:40.864Z,98810.89
2022-12-23T23:40:50.886Z,98814.71
2022-12-23T23:45:59.766Z,98818.33
2022-12-23T23:51:11.205Z,98816.54
2022-12-23T23:56:25.137Z,98824.73
